Time;durP1;ratioP1;P1;durP2;ratioP2;P2;SDS_P1;SDS_P2;PMS_P1;PMS_P2;Temp;Humidity;BMP_temperature;BMP_pressure;BME280_temperature;BME280_humidity;BME280_pressure;Samples;Min_cycle;Max_cycle;Signal;HPM_P1;HPM_P2
2022/08/22 00:00:03;;;;;;;8.37;5.20;;;;;;;22.03;57.86;101269.00;4942110;29;20409;-71
2022/08/22 00:02:57;;;;;;;11.57;5.43;;;;;;;21.66;58.51;101270.94;4942017;29;20429;-75
2022/08/22 00:05:30;;;;;;;7.67;5.07;;;;;;;22.04;57.76;101273.38;4941817;29;20500;-70
2022/08/22 00:08:07;;;;;;;12.00;5.10;;;;;;;22.91;55.72;101265.38;4941827;29;20563;-70
2022/08/22 00:11:04;;;;;;;10.00;5.47;;;;;;;23.14;54.40;101268.16;4925443;29;20423;-70
2022/08/22 00:13:49;;;;;;;12.67;4.73;;;;;;;23.70;52.93;101271.50;4941754;29;20396;-71
2022/08/22 00:16:24;;;;;;;8.70;4.97;;;;;;;24.14;51.70;101269.00;4925220;29;20426;-71
2022/08/22 00:18:54;;;;;;;6.63;4.63;;;;;;;24.16;51.30;101264.47;4925345;29;20392;-70
2022/08/22 00:21:35;;;;;;;7.93;4.60;;;;;;;24.35;50.83;101279.75;4941636;29;20417;-74
2022/08/22 00:24:16;;;;;;;8.70;4.20;;;;;;;24.63;50.22;101268.00;4925011;29;20765;-73
2022/08/22 00:26:47;;;;;;;8.03;4.47;;;;;;;24.67;50.13;101269.63;4924667;29;20469;-72
2022/08/22 00:29:17;;;;;;;5.73;4.43;;;;;;;23.62;52.88;101281.56;4940838;29;20421;-74
2022/08/22 00:31:50;;;;;;;13.43;4.43;;;;;;;23.96;51.33;101277.69;4941441;29;20421;-72
2022/08/22 00:34:33;;;;;;;9.27;4.70;;;;;;;23.49;52.73;101286.47;4940608;29;20428;-71
2022/08/22 00:37:07;;;;;;;6.40;4.50;;;;;;;23.95;51.90;101284.81;4940668;29;20425;-73
2022/08/22 00:39:50;;;;;;;8.50;4.40;;;;;;;24.73;49.77;101288.00;4924730;29;20418;-73
2022/08/22 00:42:31;;;;;;;8.33;4.47;;;;;;;23.21;53.26;101287.44;4940541;29;20575;-80
2022/08/22 00:45:00;;;;;;;9.13;4.60;;;;;;;22.75;54.99;101281.00;4941055;29;20842;-71
2022/08/22 00:47:39;;;;;;;6.43;4.67;;;;;;;22.18;56.36;101287.13;4924740;29;20479;-72
2022/08/22 00:50:33;;;;;;;9.63;5.20;;;;;;;21.85;57.57;101284.56;4924929;29;20453;-72
2022/08/22 00:53:20;;;;;;;11.70;5.10;;;;;;;21.35;58.73;101284.13;4924828;29;20721;-71
2022/08/22 00:55:45;;;;;;;11.97;4.83;;;;;;;20.84;60.94;101281.00;4941249;29;20413;-72
2022/08/22 00:58:29;;;;;;;8.20;5.13;;;;;;;20.83;61.27;101281.06;4941217;29;20437;-72
2022/08/22 01:01:00;;;;;;;7.20;4.60;;;;;;;21.26;60.11;101281.75;4941315;29;20174;-72
2022/08/22 01:03:38;;;;;;;13.00;5.63;;;;;;;21.89;58.23;101284.47;4924363;29;20404;-72
2022/08/22 01:06:41;;;;;;;9.37;4.90;;;;;;;21.84;58.86;101287.28;4941098;29;20508;-72
2022/08/22 01:09:31;;;;;;;8.80;5.10;;;;;;;20.61;61.57;101292.13;4911122;29;20843;-72
2022/08/22 01:12:04;;;;;;;7.30;4.50;;;;;;;20.35;63.59;101295.38;4940604;29;20499;-72
2022/08/22 01:14:41;;;;;;;8.00;4.60;;;;;;;21.37;61.15;101282.31;4924150;29;20454;-72
2022/08/22 01:17:26;;;;;;;9.10;4.80;;;;;;;21.68;60.28;101281.53;4940059;29;20425;-71
2022/08/22 01:20:14;;;;;;;13.10;5.13;;;;;;;21.66;59.79;101278.03;4940762;29;20453;-72
2022/08/22 01:23:13;;;;;;;9.90;4.90;;;;;;;20.97;61.73;101283.34;4940758;29;20392;-72
2022/08/22 01:25:47;;;;;;;11.57;5.40;;;;;;;21.85;59.43;101270.41;4940745;29;20428;-72
2022/08/22 01:28:19;;;;;;;11.80;5.70;;;;;;;21.84;58.80;101276.66;4940770;29;20484;-72
2022/08/22 01:31:03;;;;;;;9.47;5.60;;;;;;;21.84;58.68;101277.50;4940831;29;20538;-72
2022/08/22 01:33:37;;;;;;;8.90;4.93;;;;;;;21.64;58.79;101274.56;4940609;29;20417;-71
2022/08/22 01:36:36;;;;;;;9.90;4.50;;;;;;;21.53;58.99;101281.03;4940713;29;20420;-71
2022/08/22 01:39:10;;;;;;;8.23;4.83;;;;;;;21.72;58.69;101272.56;4942083;29;20414;-70
2022/08/22 01:42:11;;;;;;;10.67;4.80;;;;;;;21.49;59.34;101275.81;4944959;29;20831;-71
2022/08/22 01:44:54;;;;;;;9.17;5.00;;;;;;;21.48;59.49;101272.28;4925898;29;20449;-71
2022/08/22 01:47:27;;;;;;;8.60;5.40;;;;;;;21.28;60.51;101274.59;4944471;29;20888;-72
2022/08/22 01:50:03;;;;;;;12.87;6.23;;;;;;;21.46;59.43;101282.06;4928038;29;20436;-72
2022/08/22 01:52:31;;;;;;;9.60;5.10;;;;;;;21.69;59.55;101286.78;4927834;29;20498;-72
2022/08/22 01:55:11;;;;;;;10.20;5.43;;;;;;;21.97;58.21;101277.16;4943649;29;20524;-71
2022/08/22 01:57:54;;;;;;;7.83;5.53;;;;;;;21.51;59.64;101288.13;4944398;29;20765;-72
2022/08/22 02:00:21;;;;;;;7.03;5.03;;;;;;;21.50;59.09;101288.16;4927755;29;20433;-71
2022/08/22 02:02:57;;;;;;;9.63;5.40;;;;;;;21.17;60.90;101291.66;4927654;29;20420;-72
2022/08/22 02:05:27;;;;;;;11.83;5.37;;;;;;;21.44;60.13;101291.00;4944229;29;20440;-71
2022/08/22 02:08:17;;;;;;;6.73;5.00;;;;;;;21.34;59.85;101290.38;4927530;29;20472;-72
2022/08/22 02:11:05;;;;;;;14.27;4.80;;;;;;;21.52;59.41;101287.19;4943427;29;20444;-72
2022/08/22 02:13:44;;;;;;;7.90;5.30;;;;;;;21.29;60.56;101292.25;4944030;29;20661;-73
2022/08/22 02:16:15;;;;;;;7.10;5.60;;;;;;;21.75;58.75;101287.53;4944034;29;20465;-72
2022/08/22 02:18:49;;;;;;;8.73;4.53;;;;;;;21.10;60.31;101289.22;4927314;29;20712;-72
2022/08/22 02:21:21;;;;;;;10.80;5.30;;;;;;;21.36;60.18;101286.78;4927377;29;20436;-72
2022/08/22 02:24:02;;;;;;;8.80;5.20;;;;;;;21.32;59.66;101286.88;4927149;29;20479;-71
2022/08/22 02:27:06;;;;;;;7.47;5.10;;;;;;;21.37;59.88;101283.19;4927265;29;20808;-70
2022/08/22 02:29:59;;;;;;;12.37;5.43;;;;;;;21.55;59.66;101291.59;4943093;29;20432;-72
2022/08/22 02:32:39;;;;;;;8.33;5.30;;;;;;;21.82;58.56;101283.78;4933588;29;20425;-71
2022/08/22 02:35:32;;;;;;;9.73;5.67;;;;;;;21.37;59.81;101283.19;4943755;29;20447;-71
2022/08/22 02:38:24;;;;;;;9.57;5.37;;;;;;;21.42;60.04;101280.41;4943697;29;20508;-72
2022/08/22 02:40:53;;;;;;;8.83;5.00;;;;;;;21.41;59.99;101283.97;4926876;29;20436;-71
2022/08/22 02:43:29;;;;;;;7.77;5.20;;;;;;;21.30;59.81;101278.97;4943377;29;20502;-72
2022/08/22 02:46:04;;;;;;;14.70;6.17;;;;;;;21.49;59.83;101279.34;4926950;29;20417;-71
2022/08/22 02:48:49;;;;;;;8.00;4.80;;;;;;;21.23;60.11;101281.81;4926760;29;20774;-73
2022/08/22 02:51:29;;;;;;;13.43;5.00;;;;;;;21.43;59.74;101276.84;4943258;29;20413;-72
2022/08/22 02:54:03;;;;;;;7.33;5.20;;;;;;;21.30;60.14;101276.31;4943247;29;20717;-72
2022/08/22 02:56:34;;;;;;;8.70;5.23;;;;;;;21.23;60.37;101272.09;4926728;29;20429;-73
2022/08/22 02:59:23;;;;;;;9.07;5.03;;;;;;;21.31;59.90;101272.75;4910849;29;20472;-73
2022/08/22 03:01:49;;;;;;;7.23;5.10;;;;;;;21.08;61.31;101273.38;4943087;29;20726;-73
2022/08/22 03:04:14;;;;;;;7.67;4.87;;;;;;;21.39;60.07;101271.66;4926407;29;20425;-73
2022/08/22 03:06:43;;;;;;;12.37;5.87;;;;;;;20.94;60.58;101276.34;4942975;29;20193;-72
2022/08/22 03:09:14;;;;;;;10.20;5.43;;;;;;;21.09;61.22;101276.88;4942861;29;20178;-72
2022/08/22 03:11:46;;;;;;;10.13;5.27;;;;;;;21.61;59.97;101278.16;4943372;29;20702;-72
2022/08/22 03:14:18;;;;;;;8.97;6.50;;;;;;;21.59;59.82;101276.47;4942882;29;20428;-72
2022/08/22 03:17:05;;;;;;;6.97;5.30;;;;;;;21.27;60.27;101272.84;4926478;29;20655;-72
2022/08/22 03:19:41;;;;;;;9.50;5.60;;;;;;;21.42;59.98;101272.47;4942915;29;20401;-72
2022/08/22 03:22:18;;;;;;;13.50;5.67;;;;;;;21.14;61.46;101277.63;4942811;29;20413;-71
2022/08/22 03:24:54;;;;;;;9.13;6.00;;;;;;;21.24;60.60;101278.25;4926100;29;20453;-70
2022/08/22 03:27:38;;;;;;;9.57;5.80;;;;;;;21.45;60.08;101271.50;4926269;29;20460;-71
2022/08/22 03:30:16;;;;;;;7.40;5.17;;;;;;;21.34;59.99;101277.13;4926080;29;20425;-72
2022/08/22 03:32:54;;;;;;;9.67;6.00;;;;;;;21.15;60.66;101282.88;4926058;29;20421;-72
2022/08/22 03:35:31;;;;;;;5.77;5.20;;;;;;;21.49;60.26;101275.81;4942524;29;20417;-71
2022/08/22 03:38:11;;;;;;;9.30;5.60;;;;;;;21.32;60.17;101278.91;4926278;29;20417;-71
2022/08/22 03:41:19;;;;;;;9.47;5.00;;;;;;;21.48;60.11;101279.38;4926023;29;20432;-70
2022/08/22 03:43:47;;;;;;;10.10;5.23;;;;;;;21.36;60.56;101285.88;4942643;29;20433;-73
2022/08/22 03:46:31;;;;;;;9.77;5.70;;;;;;;21.40;60.02;101287.53;4942549;29;20786;-74
2022/08/22 03:49:37;;;;;;;8.00;5.50;;;;;;;21.24;60.76;101289.72;4942358;29;20429;-72
2022/08/22 03:52:29;;;;;;;8.90;5.77;;;;;;;21.28;60.42;101285.22;4942286;29;20500;-73
2022/08/22 03:55:17;;;;;;;7.87;4.83;;;;;;;20.94;61.62;101289.59;4925685;29;20430;-71
2022/08/22 03:58:07;;;;;;;9.13;5.30;;;;;;;21.32;60.16;101295.69;4925619;29;20453;-72
2022/08/22 04:00:54;;;;;;;10.23;5.90;;;;;;;21.16;61.11;101294.34;4942327;29;20491;-72
2022/08/22 04:03:58;;;;;;;6.70;5.10;;;;;;;21.15;60.94;101289.97;4941580;29;20411;-72
2022/08/22 04:06:56;;;;;;;8.13;4.80;;;;;;;21.18;60.75;101296.06;4942159;29;20417;-72
2022/08/22 04:10:12;;;;;;;10.97;5.43;;;;;;;21.19;61.33;101289.00;4941859;29;20410;-72
2022/08/22 04:12:40;;;;;;;11.03;5.53;;;;;;;21.05;61.25;101294.63;4920208;29;20674;-73
2022/08/22 04:15:36;;;;;;;8.13;5.20;;;;;;;20.99;61.55;101294.78;4941851;29;20399;-72
2022/08/22 04:18:10;;;;;;;11.13;5.70;;;;;;;20.88;61.52;101299.47;4941971;29;20437;-73
2022/08/22 04:20:52;;;;;;;7.50;5.10;;;;;;;20.86;62.20;101294.22;4941729;29;20434;-73
2022/08/22 04:23:59;;;;;;;9.57;5.27;;;;;;;21.29;60.80;101302.88;4924984;29;20472;-73
2022/08/22 04:26:43;;;;;;;9.67;5.57;;;;;;;21.50;60.33;101301.41;4925023;29;20414;-73
2022/08/22 04:29:17;;;;;;;6.20;5.13;;;;;;;21.38;60.21;101302.63;4941893;29;20413;-73
2022/08/22 04:31:48;;;;;;;9.87;5.87;;;;;;;21.34;60.66;101296.53;4925222;29;20424;-74
2022/08/22 04:34:35;;;;;;;8.60;5.50;;;;;;;21.38;60.36;101294.69;4924958;29;20421;-73
2022/08/22 04:37:11;;;;;;;12.37;6.23;;;;;;;21.13;61.17;101305.03;4924986;29;20638;-73
2022/08/22 04:39:44;;;;;;;12.87;5.93;;;;;;;21.09;60.92;101304.25;4924849;29;20477;-72
2022/08/22 04:42:24;;;;;;;7.73;5.20;;;;;;;20.80;62.13;101312.94;4924857;29;20414;-71
2022/08/22 04:44:55;;;;;;;11.20;5.80;;;;;;;20.86;61.73;101311.00;4924806;29;20422;-72
2022/08/22 04:47:30;;;;;;;8.07;5.37;;;;;;;20.99;61.54;101308.06;4941053;29;20465;-71
2022/08/22 04:50:33;;;;;;;13.27;6.00;;;;;;;21.30;60.98;101307.28;4941129;29;20443;-72
2022/08/22 04:53:01;;;;;;;13.83;6.20;;;;;;;21.33;60.74;101304.53;4909475;29;20432;-72
2022/08/22 04:55:43;;;;;;;10.77;5.37;;;;;;;20.79;62.35;101312.03;4941148;29;20413;-71
2022/08/22 04:58:29;;;;;;;8.70;5.37;;;;;;;20.53;63.99;101317.94;4941131;29;20976;-73
2022/08/22 05:01:15;;;;;;;10.27;5.57;;;;;;;21.04;62.35;101324.72;4941243;29;20421;-71
2022/08/22 05:03:46;;;;;;;6.77;4.80;;;;;;;21.06;62.01;101309.63;4941080;29;20766;-72
2022/08/22 05:06:14;;;;;;;7.70;5.50;;;;;;;20.83;63.34;101319.00;4924544;29;20400;-72
2022/08/22 05:08:41;;;;;;;11.77;6.50;;;;;;;21.01;62.64;101315.06;4940800;29;20463;-71
2022/08/22 05:11:09;;;;;;;8.73;4.93;;;;;;;20.99;62.73;101316.00;4924357;29;20798;-71
2022/08/22 05:13:46;;;;;;;7.10;5.60;;;;;;;20.16;65.22;101318.72;4923821;29;20437;-72
2022/08/22 05:16:19;;;;;;;9.30;5.33;;;;;;;20.29;65.47;101327.28;4940777;29;20432;-72
2022/08/22 05:19:02;;;;;;;10.37;5.50;;;;;;;20.58;64.44;101321.34;4940814;29;20817;-71
2022/08/22 05:21:31;;;;;;;7.83;5.40;;;;;;;20.94;63.61;101324.06;4924183;29;20424;-69
2022/08/22 05:24:21;;;;;;;11.33;5.43;;;;;;;21.15;62.76;101320.00;4924322;29;20462;-70
2022/08/22 05:26:49;;;;;;;9.90;6.27;;;;;;;21.10;62.88;101326.34;4917740;29;20725;-77
2022/08/22 05:29:19;;;;;;;9.70;6.23;;;;;;;21.52;61.35;101326.13;4924861;29;20422;-72
2022/08/22 05:31:49;;;;;;;11.83;5.47;;;;;;;21.63;61.58;101326.72;4924217;29;20444;-73
2022/08/22 05:34:27;;;;;;;13.60;5.77;;;;;;;21.89;60.30;101332.25;4923947;29;20408;-76
2022/08/22 05:36:59;;;;;;;14.13;6.23;;;;;;;21.68;60.76;101326.63;4940745;29;20494;-72
2022/08/22 05:39:26;;;;;;;10.70;5.90;;;;;;;21.99;60.01;101331.94;4939129;29;20846;-74
2022/08/22 05:41:53;;;;;;;10.33;5.90;;;;;;;22.10;59.34;101336.09;4940332;29;20473;-76
2022/08/22 05:44:25;;;;;;;12.60;5.63;;;;;;;21.53;61.25;101323.47;4940106;29;20445;-77
2022/08/22 05:47:05;;;;;;;9.30;5.70;;;;;;;20.78;63.03;101339.47;4923710;29;20492;-76
2022/08/22 05:49:46;;;;;;;8.23;5.60;;;;;;;20.50;64.85;101339.19;4940391;29;20461;-77
2022/08/22 05:52:30;;;;;;;16.63;5.57;;;;;;;21.57;61.79;101336.63;4940432;29;20432;-77
2022/08/22 05:55:03;;;;;;;8.60;5.57;;;;;;;21.56;61.62;101338.44;4940508;29;20724;-77
2022/08/22 05:57:37;;;;;;;10.73;5.97;;;;;;;21.68;61.33;101331.94;4940404;29;20426;-78
2022/08/22 06:00:10;;;;;;;14.07;6.23;;;;;;;21.77;60.34;101337.00;4940241;29;20409;-78
2022/08/22 06:02:57;;;;;;;10.50;6.80;;;;;;;22.18;59.53;101334.94;4940245;29;20831;-76
2022/08/22 06:05:29;;;;;;;8.03;5.90;;;;;;;22.04;60.41;101338.00;4940538;29;20465;-77
2022/08/22 06:08:01;;;;;;;8.43;5.57;;;;;;;22.22;60.00;101335.72;4923918;29;20461;-76
2022/08/22 06:10:46;;;;;;;15.27;7.40;;;;;;;21.89;60.77;101342.88;4923924;29;20417;-77
2022/08/22 06:13:32;;;;;;;8.37;6.33;;;;;;;22.14;60.22;101348.34;4923905;29;20429;-75
2022/08/22 06:16:20;;;;;;;12.53;9.07;;;;;;;21.85;60.72;101348.28;4923818;29;20401;-79
2022/08/22 06:18:47;;;;;;;15.00;7.00;;;;;;;22.01;60.88;101354.03;4923965;29;20422;-73
2022/08/22 06:21:25;;;;;;;18.47;14.40;;;;;;;22.51;59.77;101350.78;4940217;29;20798;-75
2022/08/22 06:23:55;;;;;;;12.90;7.90;;;;;;;22.38;59.21;101346.78;4923465;29;20770;-75
2022/08/22 06:26:22;;;;;;;10.43;6.60;;;;;;;22.38;59.51;101357.44;4943430;29;20426;-74
2022/08/22 06:28:51;;;;;;;12.27;7.30;;;;;;;22.84;58.70;101355.09;4926973;29;20465;-75
2022/08/22 06:31:21;;;;;;;12.90;6.30;;;;;;;24.13;54.97;101355.16;4943533;29;20417;-74
2022/08/22 06:34:10;;;;;;;12.87;6.63;;;;;;;23.02;57.21;101356.31;4943472;29;20424;-75
2022/08/22 06:36:38;;;;;;;13.17;6.07;;;;;;;23.73;55.21;101359.25;4943640;29;20750;-75
2022/08/22 06:39:09;;;;;;;10.63;5.90;;;;;;;24.43;52.64;101365.59;4926886;29;20417;-74
2022/08/22 06:41:46;;;;;;;10.53;5.70;;;;;;;24.80;52.74;101361.53;4943479;29;20409;-75
2022/08/22 06:44:15;;;;;;;8.77;5.87;;;;;;;24.63;52.65;101361.31;4926653;29;20436;-76
2022/08/22 06:46:43;;;;;;;7.30;5.60;;;;;;;24.46;53.38;101352.13;4926796;29;20689;-77
2022/08/22 06:49:08;;;;;;;17.67;5.77;;;;;;;23.75;54.48;101367.19;4943170;29;20436;-77
2022/08/22 06:51:35;;;;;;;11.13;5.40;;;;;;;24.93;51.64;101361.03;4926712;29;20417;-75
2022/08/22 06:54:04;;;;;;;8.33;5.27;;;;;;;24.75;52.70;101363.50;4943353;29;20166;-74
2022/08/22 06:56:38;;;;;;;7.70;5.20;;;;;;;26.89;47.44;101349.66;4926602;29;20505;-74
2022/08/22 06:59:14;;;;;;;8.23;4.80;;;;;;;28.46;43.38;101348.63;4943236;29;20449;-73
2022/08/22 07:01:49;;;;;;;10.80;5.10;;;;;;;29.12;42.13;101352.06;4926611;29;20413;-74
2022/08/22 07:04:15;;;;;;;14.03;4.90;;;;;;;26.27;47.31;101373.09;4926512;29;20413;-74
2022/08/22 07:06:48;;;;;;;6.83;4.50;;;;;;;25.53;49.11;101374.53;4926287;29;20417;-74
2022/08/22 07:09:22;;;;;;;11.63;5.17;;;;;;;23.91;54.47;101381.72;4926750;29;20417;-75
2022/08/22 07:11:49;;;;;;;10.37;5.27;;;;;;;24.52;53.33;101378.56;4942909;29;20418;-75
2022/08/22 07:14:16;;;;;;;12.23;5.50;;;;;;;24.78;52.32;101390.03;4942942;29;20693;-75
2022/08/22 07:17:13;;;;;;;7.87;4.70;;;;;;;22.74;57.60;101393.53;4926996;29;20732;-75
2022/08/22 07:19:45;;;;;;;10.27;5.30;;;;;;;23.38;56.48;101394.16;4928881;29;20481;-76
2022/08/22 07:22:15;;;;;;;6.90;4.73;;;;;;;23.54;56.38;101391.84;4945017;29;20421;-76
2022/08/22 07:24:46;;;;;;;9.83;5.47;;;;;;;23.61;55.94;101396.94;4942707;29;20921;-76
2022/08/22 07:27:45;;;;;;;10.10;4.90;;;;;;;23.76;55.92;101393.78;4942645;29;20461;-76
2022/08/22 07:30:13;;;;;;;9.47;5.67;;;;;;;23.54;56.47;101399.84;4942728;29;20414;-75
2022/08/22 07:32:53;;;;;;;10.07;5.47;;;;;;;23.66;55.64;101401.19;4942691;29;20422;-77
2022/08/22 07:35:22;;;;;;;9.53;4.60;;;;;;;23.07;57.64;101398.69;4942470;29;20417;-79
2022/08/22 07:38:03;;;;;;;9.47;4.90;;;;;;;23.05;57.92;101398.75;4925161;29;20418;-77
2022/08/22 07:40:37;;;;;;;12.60;6.60;;;;;;;25.49;51.30;101384.50;4925880;29;20823;-73
2022/08/22 07:43:20;;;;;;;8.33;5.23;;;;;;;26.04;49.48;101391.03;4942302;29;20412;-73
2022/08/22 07:45:48;;;;;;;11.70;5.17;;;;;;;26.03;49.99;101386.63;4925843;29;20489;-75
2022/08/22 07:48:22;;;;;;;8.63;5.20;;;;;;;28.52;43.74;101388.53;4942165;29;20469;-75
2022/08/22 07:50:50;;;;;;;9.30;5.10;;;;;;;28.30;45.02;101390.66;4925889;29;20409;-75
2022/08/22 07:53:32;;;;;;;12.10;6.47;;;;;;;29.79;40.84;101388.41;4925626;29;20803;-73
2022/08/22 07:56:00;;;;;;;11.17;4.43;;;;;;;30.41;39.74;101382.75;4925863;29;20429;-73
2022/08/22 07:58:28;;;;;;;8.73;4.50;;;;;;;29.67;40.49;101390.00;4925617;29;20468;-77
2022/08/22 08:00:54;;;;;;;8.43;3.97;;;;;;;29.72;40.18;101390.59;4925372;29;20414;-76
2022/08/22 08:03:21;;;;;;;14.20;4.43;;;;;;;29.44;40.72;101392.25;4925357;29;20476;-76
2022/08/22 08:05:46;;;;;;;10.30;4.93;;;;;;;31.63;37.29;101387.34;4925953;29;20173;-77
2022/08/22 08:08:25;;;;;;;7.10;4.50;;;;;;;30.36;38.52;101384.88;4941896;29;20488;-76
2022/08/22 08:10:53;;;;;;;10.43;5.23;;;;;;;30.42;38.99;101379.09;4941984;29;20178;-77
2022/08/22 08:13:27;;;;;;;8.67;4.60;;;;;;;32.06;35.71;101373.53;4925117;29;20426;-78
2022/08/22 08:15:53;;;;;;;7.77;4.30;;;;;;;31.24;37.52;101377.34;4941915;29;20417;-77
2022/08/22 08:18:22;;;;;;;12.53;4.40;;;;;;;31.17;37.52;101373.34;4941835;29;20436;-77
2022/08/22 08:20:59;;;;;;;9.17;4.57;;;;;;;30.34;39.13;101381.44;4941602;29;20422;-77
2022/08/22 08:23:27;;;;;;;8.80;4.10;;;;;;;31.50;36.84;101373.81;4924897;29;20429;-76
2022/08/22 08:25:53;;;;;;;7.40;4.10;;;;;;;32.39;35.50;101364.88;4926558;29;20422;-75
2022/08/22 08:28:33;;;;;;;9.50;4.07;;;;;;;29.48;40.56;101380.38;4944395;29;20480;-76
2022/08/22 08:31:14;;;;;;;8.03;4.20;;;;;;;28.61;42.52;101383.59;4941609;29;20169;-78
2022/08/22 08:33:42;;;;;;;6.73;4.40;;;;;;;31.26;37.50;101371.84;4941572;29;20418;-76
2022/08/22 08:36:20;;;;;;;10.17;4.37;;;;;;;31.78;36.47;101362.00;4924880;29;20418;-76
2022/08/22 08:39:02;;;;;;;8.57;4.07;;;;;;;28.27;43.48;101374.75;4941346;29;20409;-78
2022/08/22 08:41:41;;;;;;;12.17;4.60;;;;;;;29.73;40.38;101366.31;4924832;29;20413;-74
2022/08/22 08:44:31;;;;;;;7.53;4.10;;;;;;;29.37;40.67;101362.22;4924639;29;20946;-76
2022/08/22 08:47:18;;;;;;;8.10;4.23;;;;;;;31.39;36.83;101358.41;4941073;29;20475;-75
2022/08/22 08:50:02;;;;;;;7.00;4.00;;;;;;;30.62;38.00;101355.44;4922117;29;20414;-76
2022/08/22 08:52:46;;;;;;;6.30;4.33;;;;;;;29.75;39.07;101366.22;4922024;29;20414;-78
2022/08/22 08:55:50;;;;;;;8.97;4.33;;;;;;;29.90;38.69;101359.94;4921983;29;20427;-76
2022/08/22 08:58:32;;;;;;;6.80;3.90;;;;;;;26.47;45.27;101370.34;4922048;29;20417;-77
2022/08/22 09:01:21;;;;;;;6.33;4.00;;;;;;;28.39;42.36;101369.56;4921468;29;20421;-74
2022/08/22 09:03:58;;;;;;;7.47;4.60;;;;;;;27.75;43.60;101360.47;4922004;29;20434;-78
2022/08/22 09:06:46;;;;;;;12.20;4.57;;;;;;;26.15;46.93;101370.03;4922222;29;20744;-79
2022/08/22 09:09:30;;;;;;;11.93;4.77;;;;;;;28.33;42.15;101366.34;4905733;29;20482;-79
2022/08/22 09:12:32;;;;;;;7.77;4.33;;;;;;;30.60;38.00;101352.00;4922116;29;20693;-77
2022/08/22 09:15:36;;;;;;;8.50;4.20;;;;;;;31.36;34.85;101347.84;4902644;29;20422;-80
2022/08/22 09:18:26;;;;;;;6.97;4.40;;;;;;;25.42;47.18;101368.81;4891833;29;20501;-76
2022/08/22 09:21:13;;;;;;;7.33;3.80;;;;;;;27.38;43.87;101357.06;4905509;29;20429;-76
2022/08/22 09:24:00;;;;;;;8.87;4.10;;;;;;;29.56;39.38;101347.66;4921352;29;20565;-77
2022/08/22 09:26:47;;;;;;;6.93;4.13;;;;;;;32.22;33.66;101341.81;4905340;29;20422;-75
2022/08/22 09:29:28;;;;;;;5.10;4.33;;;;;;;31.77;31.26;101348.66;4905392;29;20437;-74
2022/08/22 09:32:04;;;;;;;6.20;3.60;;;;;;;30.69;33.90;101336.09;4921664;29;20418;-78
2022/08/22 09:34:34;;;;;;;5.27;3.67;;;;;;;31.54;32.78;101329.53;4921516;29;20425;-77
2022/08/22 09:37:18;;;;;;;7.53;3.83;;;;;;;31.67;32.18;101329.56;4920841;29;20407;-77
2022/08/22 09:40:27;;;;;;;5.13;3.80;;;;;;;33.46;30.00;101327.19;4921652;29;20700;-77
2022/08/22 09:43:07;;;;;;;4.97;3.43;;;;;;;32.15;30.93;101335.16;4911438;29;20501;-76
2022/08/22 09:45:54;;;;;;;4.33;3.47;;;;;;;31.97;30.94;101331.91;4921500;29;20453;-76
2022/08/22 09:48:45;;;;;;;8.40;3.80;;;;;;;30.45;33.98;101333.19;4929839;29;20461;-78
2022/08/22 09:51:13;;;;;;;6.23;3.70;;;;;;;32.39;31.57;101327.09;4940419;29;20429;-74
2022/08/22 09:53:57;;;;;;;5.73;3.70;;;;;;;32.03;32.72;101317.13;4940214;29;20492;-77
2022/08/22 09:56:51;;;;;;;7.97;4.10;;;;;;;34.20;29.70;101315.06;4940633;29;20420;-77
2022/08/22 09:59:42;;;;;;;5.60;3.60;;;;;;;34.21;28.13;101317.63;4935064;29;20425;-77
2022/08/22 10:02:18;;;;;;;8.27;3.53;;;;;;;34.36;28.40;101323.66;4944279;29;20413;-77
2022/08/22 10:04:47;;;;;;;5.63;3.73;;;;;;;34.24;28.00;101320.09;4927505;29;20713;-76
2022/08/22 10:07:27;;;;;;;6.67;3.20;;;;;;;33.59;29.33;101319.00;4943925;29;20468;-77
2022/08/22 10:10:08;;;;;;;9.00;4.43;;;;;;;33.13;29.99;101318.00;4944297;29;20874;-77
2022/08/22 10:13:18;;;;;;;4.77;3.93;;;;;;;31.96;31.48;101318.53;4927353;29;20787;-76
2022/08/22 10:15:50;;;;;;;5.70;3.40;;;;;;;32.21;29.91;101315.81;4886022;29;20845;-77
2022/08/22 10:18:24;;;;;;;5.80;3.60;;;;;;;32.43;30.19;101307.97;4937763;29;20417;-78
2022/08/22 10:21:20;;;;;;;4.13;3.73;;;;;;;33.93;29.35;101310.06;4927384;29;20520;-78
2022/08/22 10:24:24;;;;;;;7.03;3.50;;;;;;;34.04;28.69;101302.78;4942961;29;20730;-78
2022/08/22 10:26:54;;;;;;;7.00;3.63;;;;;;;32.91;29.72;101316.94;4943764;29;20515;-78
2022/08/22 10:30:17;;;;;;;6.60;3.87;;;;;;;32.47;31.11;101314.88;4928446;29;20862;-77
2022/08/22 10:32:51;;;;;;;5.00;3.27;;;;;;;34.03;28.33;101302.91;4886513;29;20802;-79
2022/08/22 10:35:31;;;;;;;6.53;3.97;;;;;;;34.00;27.70;101304.00;4878766;29;20429;-78
2022/08/22 10:38:13;;;;;;;5.47;3.87;;;;;;;32.33;31.21;101305.09;4925456;29;20472;-80
2022/08/22 10:40:50;;;;;;;6.13;3.73;;;;;;;34.09;28.36;101297.00;4947977;29;20472;-78
2022/08/22 10:43:32;;;;;;;7.27;3.90;;;;;;;31.74;31.45;101306.59;4927082;29;20692;-79
2022/08/22 10:46:12;;;;;;;6.20;3.77;;;;;;;34.56;27.10;101289.53;4927217;29;20444;-79
2022/08/22 10:48:45;;;;;;;6.37;3.70;;;;;;;34.29;27.45;101283.66;4927153;29;20882;-79
2022/08/22 10:51:16;;;;;;;9.10;4.23;;;;;;;34.52;27.70;101282.66;4943715;29;20521;-80
2022/08/22 10:54:08;;;;;;;5.40;3.80;;;;;;;31.46;30.75;101292.34;4942516;29;20902;-77
2022/08/22 10:56:39;;;;;;;6.10;3.53;;;;;;;31.10;31.08;101295.78;4942614;29;20429;-73
2022/08/22 10:59:18;;;;;;;6.07;3.50;;;;;;;32.93;29.08;101297.06;4942579;29;20432;-74
2022/08/22 11:01:52;;;;;;;3.50;3.00;;;;;;;31.69;29.36;101300.66;4943226;29;20421;-75
2022/08/22 11:04:51;;;;;;;8.50;4.10;;;;;;;31.50;30.14;101301.06;4942165;29;20429;-75
2022/08/22 11:07:41;;;;;;;4.30;3.30;;;;;;;33.40;28.83;101287.16;4943062;29;20461;-76
2022/08/22 11:10:33;;;;;;;6.83;3.57;;;;;;;34.22;27.63;101278.78;4943201;29;20461;-75
2022/08/22 11:13:11;;;;;;;4.27;3.37;;;;;;;32.65;30.13;101297.31;4942627;29;20426;-80
2022/08/22 11:15:54;;;;;;;6.20;3.67;;;;;;;31.94;30.68;101294.38;4943212;29;20428;-79
2022/08/22 11:18:34;;;;;;;8.37;3.90;;;;;;;30.95;31.96;101295.81;4942370;29;20429;-79
2022/08/22 11:21:02;;;;;;;6.50;3.80;;;;;;;31.68;31.13;101289.03;4942140;29;20439;-75
2022/08/22 11:23:41;;;;;;;5.80;3.50;;;;;;;28.08;36.92;101289.97;4942657;29;20492;-73
2022/08/22 11:26:31;;;;;;;8.10;4.10;;;;;;;27.15;37.94;101302.84;4942953;29;20480;-74
2022/08/22 11:29:24;;;;;;;6.03;4.10;;;;;;;28.40;36.46;101303.38;4942798;29;20520;-68
2022/08/22 11:32:20;;;;;;;5.43;4.10;;;;;;;29.19;35.56;101299.69;4942495;29;20413;-72
2022/08/22 11:34:48;;;;;;;15.50;4.27;;;;;;;29.64;36.14;101294.31;4942482;29;20413;-71
2022/08/22 12:08:34;;;;;;;10.33;3.70;;;;;;;28.71;35.21;101281.06;4942073;29;20904;-65
2022/08/22 12:11:22;;;;;;;8.37;3.60;;;;;;;30.77;33.65;101275.50;4941544;29;20424;-69
2022/08/22 12:13:53;;;;;;;6.90;3.70;;;;;;;31.22;31.62;101265.28;4924952;29;20677;-70
2022/08/22 12:16:31;;;;;;;6.97;4.20;;;;;;;31.10;31.46;101267.00;4925120;29;20417;-70
2022/08/22 12:19:30;;;;;;;9.87;3.77;;;;;;;29.43;32.77;101271.47;4941495;29;20420;-70
2022/08/22 12:22:28;;;;;;;6.07;3.40;;;;;;;28.51;34.24;101279.50;4941293;29;20460;-69
2022/08/22 12:25:22;;;;;;;9.83;3.60;;;;;;;29.03;34.73;101272.06;4941148;29;20469;-70
2022/08/22 12:27:59;;;;;;;3.83;3.50;;;;;;;29.63;32.75;101268.41;4920169;29;20832;-70
2022/08/22 12:30:34;;;;;;;7.13;4.10;;;;;;;28.82;34.27;101269.69;4924756;29;20428;-70
2022/08/22 12:33:34;;;;;;;7.30;3.70;;;;;;;27.45;35.04;101272.78;4941054;29;20449;-71
2022/08/22 12:36:11;;;;;;;7.37;3.87;;;;;;;28.88;34.50;101263.94;4924882;29;20512;-71
2022/08/22 12:39:07;;;;;;;4.20;3.43;;;;;;;29.72;32.17;101250.84;4924824;29;20558;-70
2022/08/22 12:41:37;;;;;;;4.90;3.90;;;;;;;29.86;32.94;101245.50;4941193;29;20771;-70
2022/08/22 12:44:24;;;;;;;4.20;3.80;;;;;;;29.63;32.43;101249.59;4940866;29;20496;-70
2022/08/22 12:47:08;;;;;;;5.80;3.53;;;;;;;29.41;33.01;101247.41;4941217;29;20420;-73
2022/08/22 12:50:00;;;;;;;7.83;3.77;;;;;;;28.72;34.63;101244.34;4940986;29;20484;-68